Omaha, NE (68142)

7:46 AM CDT on September 01, 2015 (GMT -0500)
Douglas County | | Change Station
CLOSE
Current Station
Personal Weather Station
Location: Omaha, NE
Elevation: 1132 ft
Nearby Weather Stations

Elev 1132 ft 41.34 °N, 96.11 °W | Updated 2 minutes ago

Clear
Clear
68.8 °F
Feels Like 68.8 °F
N
0.0
Wind Variable Wind from South
Gusts 1.0 mph

Today
High -- | Low -- °F
--% Chance of Precip.
Yesterday
High -- | Low -- °F
Precip. -- in
6:50 AM 7:57 PM
Waning Gibbous, 89% visible
Pressure 29.91 in
Visibility 10.0 miles
Clouds Scattered Clouds 25000 ft
Dew Point 67 °F
Humidity 94%
Rainfall 0.00 in
Snow Depth Not available.
UV 0 out of 12
Pollen 11.30 out of 12
Air Quality Not available.
Flu Activity Not available.
METAR KOMA 011152Z 17008KT 10SM SCT250 22/20 A2994 RMK AO2 SLP129 T02170200 10233 20206 53004
Pressure 29.91 in
Visibility 10.0 miles
Clouds Scattered Clouds 25000 ft
Dew Point 67 °F
Humidity 94%
Rainfall 0.00 in
Snow Depth Not available.
UV 0 out of 12
Pollen 11.30 out of 12
Air Quality Not available.
Flu Activity Not available.
METAR KOMA 011152Z 17008KT 10SM SCT250 22/20 A2994 RMK AO2 SLP129 T02170200 10233 20206 53004

10-Day Weather Forecast

×

Almanac

Astronomy

Sep. 01, 2015 Rise Set
Actual Time
Civil Twilight
Nautical Twilight
Astronomical Twilight
Moon
Length of Visible Light
Length of Day
Tomorrow will be .
, % of the Moon is Illuminated

Today's Extremes

State Highs State Lows

Community

WunderPhotos

Upload Photos

1,851,510 photos uploaded!

WunderBlogs® & News

Nearby

Air Quality

  Air Quality AQ Index Pollutant
Not available.

Snow Depth

Station Depth Elevation

Earthquake Activity

City Distance Mag. Time & Date
Minimum magnitude displayed is 2.5.

Coastal Water Temperatures

Place Temperature

Stations

Nearby Weather Stations

Station Location Temp. Windchill Dew Point Humidity Wind Precip. Elev Updated Type